Time;durP1;ratioP1;P1;durP2;ratioP2;P2;SDS_P1;SDS_P2;PMS_P1;PMS_P2;Temp;Humidity;BMP_temperature;BMP_pressure;BME280_temperature;BME280_humidity;BME280_pressure;Samples;Min_cycle;Max_cycle;Signal;HPM_P1;HPM_P2
2021/10/09 00:02:13;;;;;;;12.90;11.60;;;14.10;56.90;;;;;;5051733;28;20699;-48
2021/10/09 00:04:39;;;;;;;13.40;11.73;;;14.10;56.90;;;;;;5048900;28;20223;-45
2021/10/09 00:07:04;;;;;;;12.70;11.17;;;14.00;56.80;;;;;;5051609;28;20555;-45
2021/10/09 00:09:30;;;;;;;15.47;11.50;;;13.90;57.50;;;;;;5051045;28;20199;-46
2021/10/09 00:11:56;;;;;;;13.73;11.33;;;13.90;57.00;;;;;;5051423;28;20188;-47
2021/10/09 00:14:22;;;;;;;14.27;12.70;;;13.90;57.10;;;;;;5050306;28;20200;-46
2021/10/09 00:16:48;;;;;;;13.80;12.03;;;13.80;57.20;;;;;;5051740;28;20192;-46
2021/10/09 00:19:14;;;;;;;16.10;11.97;;;13.80;57.30;;;;;;5051019;28;20430;-48
2021/10/09 00:21:44;;;;;;;16.37;11.80;;;13.80;57.40;;;;;;5051624;28;20565;-46
2021/10/09 00:24:18;;;;;;;13.50;12.10;;;13.70;57.40;;;;;;5050375;28;20464;-48
2021/10/09 00:26:45;;;;;;;16.57;12.60;;;13.70;57.70;;;;;;5051178;28;20469;-47
2021/10/09 00:29:11;;;;;;;15.20;12.53;;;13.50;58.60;;;;;;5049990;28;20463;-47
2021/10/09 00:31:37;;;;;;;15.57;12.37;;;13.60;58.70;;;;;;5050328;28;20727;-45
2021/10/09 00:34:03;;;;;;;14.47;12.50;;;13.60;58.60;;;;;;5049919;28;20470;-45
2021/10/09 00:36:29;;;;;;;13.70;12.10;;;13.60;58.20;;;;;;5052556;28;20419;-47
2021/10/09 00:38:55;;;;;;;13.40;11.63;;;13.70;58.20;;;;;;5054576;28;21272;-47
2021/10/09 00:41:22;;;;;;;13.63;11.67;;;13.60;58.00;;;;;;5055217;28;20203;-47
2021/10/09 00:43:47;;;;;;;13.40;11.60;;;13.60;58.00;;;;;;5054713;28;20311;-48
2021/10/09 00:46:13;;;;;;;12.60;10.90;;;13.60;57.70;;;;;;5054768;28;20435;-46
2021/10/09 00:48:39;;;;;;;19.00;12.43;;;13.60;57.50;;;;;;5054178;28;20243;-46
2021/10/09 00:51:05;;;;;;;13.47;11.37;;;13.50;57.40;;;;;;5054915;28;20429;-48
2021/10/09 00:53:32;;;;;;;12.00;9.97;;;13.50;57.30;;;;;;5054657;28;20641;-47
2021/10/09 00:56:00;;;;;;;11.50;10.30;;;13.50;57.10;;;;;;5052511;28;20473;-49
2021/10/09 00:58:27;;;;;;;10.77;9.67;;;13.40;57.00;;;;;;5052619;28;20427;-47
2021/10/09 01:00:55;;;;;;;12.20;10.87;;;13.40;56.80;;;;;;5054352;28;20433;-51
2021/10/09 01:03:21;;;;;;;12.30;11.10;;;13.40;56.80;;;;;;5054872;28;20789;-45
2021/10/09 01:05:47;;;;;;;10.63;9.53;;;13.40;56.80;;;;;;5053923;28;20510;-49
2021/10/09 01:08:12;;;;;;;12.27;10.60;;;13.30;56.70;;;;;;5054456;28;20581;-46
2021/10/09 01:10:38;;;;;;;11.80;10.13;;;13.20;56.60;;;;;;5054129;28;20426;-46
2021/10/09 01:13:05;;;;;;;14.60;10.73;;;13.20;56.80;;;;;;5054448;28;20247;-45
2021/10/09 01:15:32;;;;;;;13.13;11.03;;;13.20;56.70;;;;;;5053707;28;20430;-47
2021/10/09 01:18:07;;;;;;;10.97;9.90;;;13.20;56.50;;;;;;5054397;28;20473;-51
2021/10/09 01:20:47;;;;;;;15.77;11.30;;;13.20;56.60;;;;;;5053619;28;20524;-45
2021/10/09 01:23:12;;;;;;;15.80;11.67;;;13.20;56.60;;;;;;5052908;28;20944;-46
2021/10/09 01:25:38;;;;;;;15.40;11.00;;;13.20;56.70;;;;;;5053518;28;20518;-48
2021/10/09 01:28:04;;;;;;;16.83;11.10;;;13.10;56.90;;;;;;5054286;28;20640;-49
2021/10/09 01:30:29;;;;;;;17.43;12.10;;;13.10;57.30;;;;;;5053534;28;20224;-49
2021/10/09 01:32:55;;;;;;;16.50;11.20;;;13.00;57.70;;;;;;5054087;28;20540;-50
2021/10/09 01:35:21;;;;;;;13.60;11.13;;;13.00;58.00;;;;;;5053534;28;20679;-47
2021/10/09 01:37:46;;;;;;;13.57;11.10;;;12.90;58.40;;;;;;5054201;28;20196;-49
2021/10/09 01:40:12;;;;;;;12.63;10.40;;;12.90;58.30;;;;;;5053441;28;20193;-48
2021/10/09 01:42:38;;;;;;;12.70;10.60;;;12.90;57.90;;;;;;5053998;28;20246;-47
2021/10/09 01:45:07;;;;;;;15.50;10.80;;;12.90;57.70;;;;;;5053116;28;20192;-49
2021/10/09 01:47:32;;;;;;;11.63;10.43;;;12.80;57.50;;;;;;5053554;28;20271;-49
2021/10/09 01:49:58;;;;;;;12.33;11.03;;;12.60;57.80;;;;;;5051292;28;20594;-50
2021/10/09 01:52:24;;;;;;;13.20;10.77;;;12.60;58.50;;;;;;5053864;28;20310;-48
2021/10/09 01:54:49;;;;;;;13.17;10.93;;;12.60;58.60;;;;;;5053170;28;20193;-47
2021/10/09 01:57:15;;;;;;;11.80;10.30;;;12.50;58.70;;;;;;5051730;28;20204;-48
2021/10/09 01:59:41;;;;;;;15.67;10.30;;;12.60;58.80;;;;;;5052906;28;20326;-47
2021/10/09 02:02:06;;;;;;;20.27;10.60;;;12.60;58.70;;;;;;5053682;28;20227;-44
2021/10/09 02:04:33;;;;;;;25.13;10.70;;;12.50;58.70;;;;;;5052818;28;20203;-45
2021/10/09 02:06:59;;;;;;;12.50;10.00;;;12.50;58.60;;;;;;5053200;28;20249;-45
2021/10/09 02:09:25;;;;;;;13.20;9.47;;;12.50;58.40;;;;;;5052969;28;20526;-46
2021/10/09 02:11:52;;;;;;;11.40;10.20;;;12.50;58.40;;;;;;5053788;28;20308;-46
2021/10/09 02:17:13;;;;;;;10.93;9.93;;;12.50;58.20;;;;;;5051986;28;20427;-44
2021/10/09 02:27:33;;;;;;;11.20;10.00;;;12.30;58.10;;;;;;5053200;28;20423;-44
2021/10/09 02:29:58;;;;;;;13.07;10.13;;;12.30;58.30;;;;;;5052542;28;20196;-44
2021/10/09 02:32:24;;;;;;;11.17;10.07;;;12.40;58.60;;;;;;5053018;28;20327;-45
2021/10/09 02:34:49;;;;;;;10.80;8.90;;;12.30;58.60;;;;;;5051970;28;20192;-44
2021/10/09 02:37:15;;;;;;;12.03;9.77;;;12.30;58.00;;;;;;5052916;28;20275;-45
2021/10/09 02:39:41;;;;;;;11.00;8.10;;;12.20;57.90;;;;;;5052416;28;20200;-44
2021/10/09 02:42:06;;;;;;;7.93;7.23;;;12.20;57.90;;;;;;5051228;28;20718;-45
2021/10/09 02:44:32;;;;;;;8.33;7.00;;;12.10;57.80;;;;;;5034182;28;20251;-45
2021/10/09 02:46:57;;;;;;;8.20;7.40;;;12.10;57.80;;;;;;5052797;28;20189;-44
2021/10/09 02:49:23;;;;;;;9.77;7.50;;;12.20;57.60;;;;;;5051941;28;20240;-44
2021/10/09 02:51:49;;;;;;;9.17;7.80;;;12.20;57.50;;;;;;5053139;28;20668;-44
2021/10/09 02:54:14;;;;;;;10.73;8.07;;;12.20;57.30;;;;;;5051510;28;20216;-45
2021/10/09 02:56:40;;;;;;;9.63;8.30;;;12.10;57.20;;;;;;5050989;28;20189;-47
2021/10/09 02:59:05;;;;;;;11.20;8.87;;;12.10;57.30;;;;;;5051178;28;20589;-46
2021/10/09 03:01:31;;;;;;;12.33;8.53;;;12.00;57.20;;;;;;5052317;28;20242;-44
2021/10/09 03:03:56;;;;;;;9.23;8.33;;;12.00;57.40;;;;;;5051705;28;20207;-45
2021/10/09 03:06:22;;;;;;;12.23;7.70;;;11.90;57.70;;;;;;5052471;28;20192;-45
2021/10/09 03:08:47;;;;;;;15.07;7.80;;;11.90;57.80;;;;;;5050188;28;20189;-45
2021/10/09 03:11:13;;;;;;;8.93;7.83;;;11.90;57.60;;;;;;5052332;28;20193;-44
2021/10/09 03:13:39;;;;;;;9.37;8.17;;;11.90;57.50;;;;;;5051257;28;20226;-45
2021/10/09 03:16:04;;;;;;;10.30;7.60;;;11.80;57.50;;;;;;5052330;28;20200;-46
2021/10/09 03:18:30;;;;;;;8.77;7.87;;;11.80;57.50;;;;;;5052409;28;20239;-45
2021/10/09 03:20:55;;;;;;;9.93;8.33;;;11.80;57.60;;;;;;5051678;28;20655;-44
2021/10/09 03:23:21;;;;;;;10.00;8.07;;;11.80;57.60;;;;;;5052106;28;20194;-47
2021/10/09 03:25:47;;;;;;;9.70;7.07;;;11.80;57.60;;;;;;5051255;28;20235;-46
2021/10/09 03:28:12;;;;;;;10.80;7.77;;;11.80;57.80;;;;;;5052189;28;20554;-46
2021/10/09 03:30:38;;;;;;;6.67;6.07;;;11.70;57.90;;;;;;5051460;28;20529;-45
2021/10/09 03:33:03;;;;;;;6.73;6.13;;;11.70;58.00;;;;;;5051766;28;20226;-45
2021/10/09 03:35:29;;;;;;;13.00;7.57;;;11.70;58.10;;;;;;5049448;28;20279;-45
2021/10/09 03:37:54;;;;;;;8.47;7.60;;;11.60;57.90;;;;;;5051898;28;20192;-46
2021/10/09 03:40:22;;;;;;;7.20;6.60;;;11.60;58.20;;;;;;5051115;28;20654;-46
2021/10/09 03:47:52;;;;;;;8.03;6.90;;;11.50;58.40;;;;;;5051545;28;20426;-44
2021/10/09 03:52:43;;;;;;;6.90;6.33;;;11.60;58.50;;;;;;5020614;28;20487;-45
2021/10/09 03:55:13;;;;;;;8.73;6.97;;;11.60;58.40;;;;;;5030541;28;20672;-44
2021/10/09 03:57:39;;;;;;;8.07;7.27;;;11.60;58.50;;;;;;5029452;28;20229;-45
2021/10/09 04:00:07;;;;;;;7.90;7.23;;;11.60;58.50;;;;;;5031111;28;20421;-44
2021/10/09 04:02:32;;;;;;;7.40;6.80;;;11.50;58.20;;;;;;5029962;28;20185;-45
2021/10/09 04:04:58;;;;;;;11.63;7.80;;;11.60;58.00;;;;;;5030691;28;20895;-44
2021/10/09 04:07:24;;;;;;;9.57;8.10;;;11.60;58.10;;;;;;5031603;28;20196;-45
2021/10/09 04:09:49;;;;;;;21.00;8.90;;;11.50;58.10;;;;;;5031088;28;20219;-45
2021/10/09 04:12:15;;;;;;;9.23;8.33;;;11.50;58.30;;;;;;5028877;28;20681;-47
2021/10/09 04:14:41;;;;;;;16.73;9.00;;;11.50;58.40;;;;;;5030430;28;20207;-44
2021/10/09 04:17:07;;;;;;;15.00;8.00;;;11.50;58.50;;;;;;5031558;28;20194;-45
2021/10/09 04:19:33;;;;;;;14.63;7.97;;;11.40;58.60;;;;;;5030903;28;20201;-44
2021/10/09 04:21:58;;;;;;;15.57;7.33;;;11.40;58.60;;;;;;5031609;28;20797;-47
2021/10/09 04:24:24;;;;;;;10.10;7.70;;;11.40;58.60;;;;;;5030478;28;20420;-44
2021/10/09 04:26:50;;;;;;;7.70;6.93;;;11.30;58.60;;;;;;5031809;28;20189;-45
2021/10/09 04:29:15;;;;;;;17.40;7.17;;;11.30;58.80;;;;;;5029337;28;20197;-44
2021/10/09 04:31:41;;;;;;;36.87;7.67;;;11.20;58.90;;;;;;5031492;28;20436;-45
2021/10/09 04:34:07;;;;;;;9.07;8.17;;;11.10;58.70;;;;;;5030267;28;20337;-46
2021/10/09 04:36:32;;;;;;;12.43;7.30;;;11.00;59.30;;;;;;5031230;28;20201;-45
2021/10/09 04:38:58;;;;;;;9.63;7.40;;;11.00;59.50;;;;;;5030716;28;20708;-44
2021/10/09 04:41:24;;;;;;;9.47;7.80;;;11.10;59.30;;;;;;5031393;28;20280;-44
2021/10/09 04:43:49;;;;;;;8.67;7.77;;;11.20;59.30;;;;;;5030376;28;20190;-47
2021/10/09 04:46:15;;;;;;;9.40;7.80;;;11.10;59.10;;;;;;5031167;28;20280;-45
2021/10/09 04:48:40;;;;;;;20.27;7.33;;;11.20;59.00;;;;;;5037252;28;20294;-44
2021/10/09 04:51:06;;;;;;;10.33;6.90;;;11.20;58.40;;;;;;5051292;28;20191;-44
2021/10/09 04:53:32;;;;;;;7.60;6.90;;;11.10;58.00;;;;;;5050565;28;20289;-45
2021/10/09 04:55:57;;;;;;;8.33;6.73;;;11.10;57.70;;;;;;5048927;28;20207;-46
2021/10/09 04:58:23;;;;;;;6.13;5.53;;;11.10;57.40;;;;;;5049261;28;20659;-44
2021/10/09 05:00:48;;;;;;;6.43;5.83;;;11.10;57.20;;;;;;5050765;28;20275;-44
2021/10/09 05:03:15;;;;;;;6.33;5.73;;;11.10;57.00;;;;;;5051061;28;20250;-46
2021/10/09 05:05:42;;;;;;;6.27;5.67;;;11.00;56.80;;;;;;5049864;28;20197;-45
2021/10/09 05:08:08;;;;;;;6.27;5.77;;;11.00;56.70;;;;;;5050821;28;20446;-44
2021/10/09 05:10:34;;;;;;;6.90;6.30;;;10.90;56.60;;;;;;5050427;28;20427;-45
2021/10/09 05:13:00;;;;;;;6.23;5.73;;;10.80;56.80;;;;;;5050589;28;20915;-44
2021/10/09 05:15:26;;;;;;;6.00;5.50;;;10.80;56.80;;;;;;5049676;28;20451;-46
2021/10/09 05:17:51;;;;;;;6.27;5.77;;;10.80;57.30;;;;;;5050934;28;20587;-46
2021/10/09 05:20:18;;;;;;;6.20;5.60;;;10.80;57.80;;;;;;5050744;28;20265;-45
2021/10/09 05:22:44;;;;;;;5.17;4.67;;;10.80;57.80;;;;;;5050853;28;20196;-47
2021/10/09 05:25:10;;;;;;;5.60;5.17;;;10.90;58.00;;;;;;5053464;28;20430;-44
2021/10/09 05:27:36;;;;;;;5.80;5.30;;;10.80;57.90;;;;;;5054274;28;20842;-45
2021/10/09 05:30:08;;;;;;;9.47;8.57;;;10.90;57.70;;;;;;5053767;28;20338;-45
2021/10/09 05:32:36;;;;;;;7.87;7.07;;;10.90;57.70;;;;;;5054162;28;20469;-44
2021/10/09 05:35:03;;;;;;;17.43;7.30;;;10.90;57.50;;;;;;5053310;28;20511;-46
2021/10/09 05:37:31;;;;;;;13.53;6.50;;;11.00;57.60;;;;;;5054021;28;20430;-46
2021/10/09 05:39:58;;;;;;;8.33;7.53;;;10.90;57.40;;;;;;5053912;28;20442;-45
2021/10/09 05:42:23;;;;;;;13.00;7.50;;;10.90;57.50;;;;;;5054118;28;20441;-49
2021/10/09 05:44:50;;;;;;;11.90;8.60;;;10.90;57.60;;;;;;5053273;28;20420;-44
2021/10/09 05:47:16;;;;;;;8.73;7.63;;;10.80;57.80;;;;;;5052372;28;21162;-45
2021/10/09 05:49:42;;;;;;;7.87;7.07;;;10.80;57.90;;;;;;5053175;28;20478;-44
2021/10/09 05:52:19;;;;;;;7.00;6.40;;;10.80;57.90;;;;;;5053899;28;20583;-45
2021/10/09 05:54:53;;;;;;;7.00;6.37;;;10.80;57.90;;;;;;5053063;28;20470;-48
2021/10/09 05:57:34;;;;;;;7.10;6.40;;;10.80;57.70;;;;;;5052580;28;20435;-46
2021/10/09 06:00:36;;;;;;;6.67;6.07;;;10.80;57.60;;;;;;5052940;28;20423;-44
2021/10/09 06:47:11;;;;;;;9.57;8.57;;;12.30;56.50;;;;;;5014888;28;20933;-44
2021/10/09 07:00:17;;;;;;;12.30;9.63;;;13.20;55.70;;;;;;5051711;28;20434;-48
2021/10/09 07:02:43;;;;;;;10.70;9.23;;;13.40;55.60;;;;;;5052671;28;20439;-45
2021/10/09 07:05:10;;;;;;;10.03;9.03;;;13.60;55.50;;;;;;5051414;28;20222;-48
2021/10/09 07:07:41;;;;;;;10.23;9.23;;;13.70;55.30;;;;;;5050623;28;20453;-45
2021/10/09 07:10:08;;;;;;;10.27;9.17;;;14.00;55.30;;;;;;5051895;28;20423;-49
2021/10/09 07:12:34;;;;;;;10.30;8.87;;;14.10;55.10;;;;;;5052427;28;20470;-45
2021/10/09 07:14:59;;;;;;;10.20;9.10;;;14.30;54.80;;;;;;5051414;28;20419;-48
2021/10/09 07:17:25;;;;;;;9.43;8.40;;;14.50;54.80;;;;;;5052308;28;20565;-48
2021/10/09 07:19:51;;;;;;;10.40;9.30;;;14.70;54.80;;;;;;5051752;28;20200;-46
2021/10/09 07:22:16;;;;;;;10.63;9.63;;;14.90;54.40;;;;;;5052066;28;20189;-47
2021/10/09 07:24:42;;;;;;;9.87;8.87;;;15.00;54.20;;;;;;5051077;28;20307;-46
2021/10/09 07:27:08;;;;;;;11.53;8.97;;;15.20;54.40;;;;;;5052058;28;20569;-49
2021/10/09 07:29:33;;;;;;;9.80;8.80;;;15.30;54.20;;;;;;5051453;28;20271;-50
2021/10/09 07:31:59;;;;;;;10.13;9.03;;;15.50;54.20;;;;;;5051822;28;20193;-45
2021/10/09 07:34:24;;;;;;;10.20;9.10;;;15.60;54.20;;;;;;5049261;28;20228;-46
2021/10/09 07:36:50;;;;;;;11.70;10.50;;;15.70;54.00;;;;;;5052311;28;20190;-48
2021/10/09 07:39:16;;;;;;;10.87;8.67;;;15.80;54.20;;;;;;5051544;28;20540;-47
2021/10/09 07:41:42;;;;;;;10.00;8.90;;;15.90;53.50;;;;;;5052046;28;20473;-46
2021/10/09 07:44:07;;;;;;;11.37;9.20;;;16.00;53.40;;;;;;5050994;28;20192;-47
2021/10/09 07:46:33;;;;;;;11.00;9.90;;;16.00;53.00;;;;;;5051664;28;20197;-51
2021/10/09 07:48:59;;;;;;;11.03;9.90;;;16.10;53.10;;;;;;5051029;28;20760;-46
2021/10/09 07:51:24;;;;;;;11.43;10.30;;;16.10;53.30;;;;;;5051584;28;20435;-46
2021/10/09 07:53:50;;;;;;;10.87;9.77;;;16.10;53.20;;;;;;5050716;28;20223;-47
2021/10/09 07:56:16;;;;;;;12.53;10.13;;;16.10;53.60;;;;;;5051783;28;20679;-46
2021/10/09 07:58:41;;;;;;;10.90;9.80;;;16.20;53.90;;;;;;5049175;28;20193;-46
2021/10/09 08:01:07;;;;;;;11.67;9.27;;;16.20;54.00;;;;;;5050209;28;20694;-46
2021/10/09 08:03:32;;;;;;;12.03;9.47;;;16.20;53.90;;;;;;5051221;28;20695;-49
2021/10/09 08:05:58;;;;;;;10.43;9.43;;;16.30;54.50;;;;;;5051300;28;20192;-47
2021/10/09 08:08:24;;;;;;;10.53;9.53;;;16.30;54.80;;;;;;5051805;28;20250;-46
2021/10/09 08:10:50;;;;;;;13.60;10.63;;;16.40;55.10;;;;;;5050886;28;20196;-46
2021/10/09 08:13:17;;;;;;;13.40;10.40;;;16.50;55.20;;;;;;5051068;28;20274;-46
2021/10/09 08:15:44;;;;;;;12.60;11.17;;;16.50;55.30;;;;;;5050892;28;20423;-48
2021/10/09 08:18:10;;;;;;;11.67;10.47;;;16.50;56.40;;;;;;5051556;28;20498;-46
2021/10/09 08:20:38;;;;;;;14.93;11.83;;;16.60;55.10;;;;;;5050919;28;20585;-46
2021/10/09 08:23:08;;;;;;;15.23;12.83;;;16.60;54.90;;;;;;5051285;28;20953;-46
2021/10/09 08:41:09;;;;;;;13.90;11.03;;;17.00;54.80;;;;;;5051307;28;20430;-49
2021/10/09 08:43:35;;;;;;;19.23;13.40;;;17.20;54.80;;;;;;5050778;28;20915;-47
2021/10/09 08:46:01;;;;;;;16.03;13.13;;;17.30;54.30;;;;;;5051231;28;20631;-48
2021/10/09 08:48:28;;;;;;;18.50;13.50;;;17.50;53.70;;;;;;5051141;28;20958;-46
2021/10/09 08:50:58;;;;;;;19.40;13.27;;;17.70;53.80;;;;;;5050485;28;20224;-49
2021/10/09 08:53:38;;;;;;;17.20;13.13;;;17.80;53.30;;;;;;5049413;28;20845;-47
2021/10/09 08:56:04;;;;;;;16.80;13.67;;;17.90;53.50;;;;;;5051335;28;20435;-45
2021/10/09 08:58:32;;;;;;;14.73;13.10;;;18.00;52.90;;;;;;5051792;28;20450;-51
2021/10/09 09:01:04;;;;;;;14.03;12.50;;;18.10;53.60;;;;;;5054520;28;20517;-47
2021/10/09 09:37:16;;;;;;;14.90;13.40;;;19.10;50.80;;;;;;5054290;28;20429;-45
2021/10/09 09:39:44;;;;;;;20.90;13.00;;;19.00;50.30;;;;;;5053642;28;20208;-45
2021/10/09 09:42:10;;;;;;;15.50;13.87;;;18.50;50.60;;;;;;5054145;28;20795;-45
2021/10/09 09:44:36;;;;;;;13.93;12.33;;;18.50;51.20;;;;;;5053201;28;20918;-46
2021/10/09 09:47:01;;;;;;;17.70;12.57;;;19.00;51.40;;;;;;5052528;28;20455;-45
2021/10/09 09:49:31;;;;;;;15.00;12.20;;;19.40;50.60;;;;;;5053243;28;20533;-45
2021/10/09 09:51:57;;;;;;;14.20;12.50;;;19.80;50.20;;;;;;5053856;28;20302;-45
2021/10/09 09:54:26;;;;;;;13.80;12.30;;;20.20;48.60;;;;;;5053005;28;20598;-47
2021/10/09 09:57:01;;;;;;;15.90;12.00;;;20.00;48.90;;;;;;5051831;28;20455;-45
2021/10/09 09:59:31;;;;;;;14.70;11.70;;;20.20;49.20;;;;;;5053540;28;20422;-46
2021/10/09 10:02:02;;;;;;;17.53;11.97;;;20.30;47.30;;;;;;5053515;28;20430;-47
2021/10/09 10:04:32;;;;;;;12.77;10.73;;;20.30;46.90;;;;;;5052817;28;20427;-45
2021/10/09 10:07:00;;;;;;;12.77;10.77;;;20.20;46.10;;;;;;5053630;28;20986;-45
2021/10/09 10:09:28;;;;;;;13.77;10.60;;;20.00;46.70;;;;;;5052948;28;20431;-46
2021/10/09 10:11:59;;;;;;;13.73;10.97;;;20.10;46.30;;;;;;5051813;28;20435;-45
2021/10/09 10:14:27;;;;;;;11.40;9.87;;;20.50;46.20;;;;;;5046432;28;20494;-46
2021/10/09 10:16:53;;;;;;;16.60;10.83;;;20.80;46.00;;;;;;5053451;28;20431;-45
2021/10/09 10:19:19;;;;;;;13.73;11.23;;;20.70;44.70;;;;;;5052832;28;20553;-45
2021/10/09 10:21:46;;;;;;;11.03;9.83;;;20.70;46.50;;;;;;5053474;28;20514;-46
2021/10/09 10:24:33;;;;;;;10.67;9.57;;;21.10;44.70;;;;;;5052306;28;20204;-45
2021/10/09 10:27:40;;;;;;;12.60;10.33;;;21.40;44.20;;;;;;5053032;28;20431;-45
2021/10/09 10:30:14;;;;;;;12.60;9.60;;;21.40;43.20;;;;;;5052721;28;20904;-45
2021/10/09 10:32:47;;;;;;;20.03;11.20;;;20.80;44.10;;;;;;5053108;28;20488;-46
2021/10/09 10:35:46;;;;;;;12.70;10.30;;;20.80;44.00;;;;;;5051985;28;20458;-45
2021/10/09 10:38:21;;;;;;;14.63;10.50;;;20.80;44.80;;;;;;5051888;28;20435;-48
2021/10/09 10:40:47;;;;;;;11.30;10.10;;;21.30;44.70;;;;;;5052353;28;20434;-46
2021/10/09 10:46:45;;;;;;;12.23;10.30;;;21.80;44.20;;;;;;5052753;28;20648;-45
2021/10/09 10:49:29;;;;;;;15.27;10.17;;;22.20;43.40;;;;;;5051671;28;20475;-47
2021/10/09 10:57:01;;;;;;;12.13;10.77;;;23.20;42.50;;;;;;5050276;28;20428;-48
2021/10/09 10:59:37;;;;;;;13.83;10.30;;;22.80;41.30;;;;;;5033478;28;20569;-46
2021/10/09 11:02:38;;;;;;;10.53;9.53;;;23.10;41.10;;;;;;5052586;28;20435;-46
2021/10/09 11:05:09;;;;;;;12.47;9.60;;;23.30;41.70;;;;;;5035747;28;20450;-46
2021/10/09 11:07:37;;;;;;;12.27;10.20;;;23.40;40.90;;;;;;5052440;28;21101;-48
2021/10/09 11:10:08;;;;;;;11.33;9.83;;;23.60;41.10;;;;;;5051843;28;20803;-46
2021/10/09 11:12:36;;;;;;;11.63;10.37;;;23.80;41.00;;;;;;5052444;28;20785;-45
2021/10/09 11:15:04;;;;;;;13.30;9.90;;;23.90;40.10;;;;;;5051164;28;20438;-45
2021/10/09 11:17:39;;;;;;;11.17;9.40;;;23.70;39.10;;;;;;5052828;28;20459;-46
2021/10/09 11:20:07;;;;;;;12.00;9.47;;;23.40;39.20;;;;;;5051138;28;20430;-45
2021/10/09 11:22:41;;;;;;;13.53;9.87;;;23.40;39.00;;;;;;5052190;28;20419;-45
2021/10/09 11:25:08;;;;;;;10.73;9.00;;;23.10;39.60;;;;;;5051315;28;20514;-45
2021/10/09 11:27:38;;;;;;;11.17;8.97;;;23.30;39.60;;;;;;5052065;28;20427;-45
2021/10/09 11:30:11;;;;;;;9.93;8.93;;;23.50;40.40;;;;;;5051587;28;20420;-46
2021/10/09 11:32:39;;;;;;;11.07;9.97;;;23.70;39.70;;;;;;5050172;28;20953;-47
2021/10/09 11:35:07;;;;;;;13.67;11.37;;;23.90;39.60;;;;;;5050949;28;20415;-46
2021/10/09 11:37:34;;;;;;;14.37;11.23;;;23.90;39.50;;;;;;5051898;28;20510;-45
2021/10/09 11:40:03;;;;;;;11.77;10.57;;;24.10;39.70;;;;;;5051311;28;20434;-46
2021/10/09 11:42:33;;;;;;;11.60;9.80;;;24.10;40.40;;;;;;5052186;28;20790;-45
2021/10/09 11:45:16;;;;;;;11.43;10.17;;;24.20;39.30;;;;;;5051062;28;20886;-51
2021/10/09 11:56:04;;;;;;;9.50;8.23;;;24.80;38.70;;;;;;5052038;28;20453;-45
2021/10/09 11:58:30;;;;;;;12.73;9.30;;;24.80;37.00;;;;;;5047876;28;20859;-45
2021/10/09 12:00:56;;;;;;;11.30;8.60;;;24.70;36.80;;;;;;5051171;28;20466;-46
2021/10/09 12:03:25;;;;;;;13.17;10.17;;;24.50;36.90;;;;;;5051094;28;20427;-45
2021/10/09 12:05:54;;;;;;;15.53;9.20;;;24.50;37.30;;;;;;5051136;28;20447;-47
2021/10/09 12:08:25;;;;;;;10.97;9.70;;;24.20;37.40;;;;;;5051449;28;20447;-45
2021/10/09 12:11:29;;;;;;;9.60;8.63;;;24.10;37.40;;;;;;5051097;28;20435;-47
2021/10/09 12:14:10;;;;;;;9.63;8.50;;;24.30;37.40;;;;;;5050228;28;20482;-45
2021/10/09 12:16:49;;;;;;;9.83;8.87;;;24.10;37.20;;;;;;5051465;28;20481;-46
2021/10/09 12:19:28;;;;;;;9.70;8.57;;;24.20;38.40;;;;;;5050625;28;20442;-45
2021/10/09 12:21:53;;;;;;;11.80;8.63;;;24.50;37.60;;;;;;5051611;28;20511;-45
2021/10/09 12:24:24;;;;;;;12.73;9.90;;;24.50;37.30;;;;;;5048709;28;20424;-45
2021/10/09 12:27:15;;;;;;;10.67;9.40;;;24.50;36.60;;;;;;5051685;28;20242;-45
2021/10/09 12:30:12;;;;;;;11.33;8.63;;;24.60;37.60;;;;;;5050526;28;20442;-47
2021/10/09 12:32:41;;;;;;;10.57;8.43;;;24.80;36.40;;;;;;5054277;28;20431;-46
2021/10/09 12:35:15;;;;;;;9.13;8.13;;;24.80;36.40;;;;;;5054913;28;20470;-47
2021/10/09 12:37:57;;;;;;;11.30;8.33;;;24.90;36.40;;;;;;5055287;28;20442;-47
2021/10/09 12:40:25;;;;;;;9.80;7.67;;;24.70;36.10;;;;;;5054447;28;20423;-45
2021/10/09 12:42:56;;;;;;;9.53;8.53;;;24.10;36.30;;;;;;5055134;28;20430;-50
2021/10/09 12:45:24;;;;;;;7.83;7.13;;;24.10;36.40;;;;;;5054620;28;20505;-46
2021/10/09 12:47:49;;;;;;;9.03;7.97;;;24.50;36.50;;;;;;5055271;28;20938;-45
2021/10/09 12:50:16;;;;;;;9.20;8.30;;;24.80;36.00;;;;;;5054381;28;20477;-48
2021/10/09 12:52:42;;;;;;;10.00;9.00;;;25.20;35.80;;;;;;5052875;28;20265;-50
2021/10/09 12:55:09;;;;;;;9.17;8.10;;;25.30;35.10;;;;;;5054528;28;20419;-46
2021/10/09 12:57:36;;;;;;;9.23;8.33;;;25.40;34.50;;;;;;5053360;28;20199;-47
2021/10/09 13:00:03;;;;;;;9.90;8.53;;;24.90;34.80;;;;;;5054352;28;20423;-46
2021/10/09 13:02:28;;;;;;;9.90;9.00;;;24.90;35.80;;;;;;5055340;28;20450;-46
2021/10/09 13:04:55;;;;;;;9.60;8.03;;;24.70;35.60;;;;;;5053768;28;20462;-46
2021/10/09 13:07:21;;;;;;;11.80;8.30;;;24.30;36.60;;;;;;5055094;28;20200;-46
2021/10/09 13:09:46;;;;;;;9.50;8.50;;;24.00;36.30;;;;;;5054079;28;20960;-46
2021/10/09 13:12:14;;;;;;;8.73;7.93;;;23.80;36.80;;;;;;5054739;28;20258;-45
2021/10/09 13:14:41;;;;;;;8.80;7.90;;;24.10;36.90;;;;;;5053700;28;20301;-47
2021/10/09 13:17:07;;;;;;;13.13;9.13;;;24.20;36.50;;;;;;5052723;28;20420;-46
2021/10/09 13:19:32;;;;;;;9.73;8.83;;;24.30;36.40;;;;;;5054085;28;20445;-46
2021/10/09 13:21:58;;;;;;;10.40;8.33;;;24.40;36.90;;;;;;5054687;28;20193;-45
2021/10/09 13:24:24;;;;;;;10.10;7.67;;;24.40;35.80;;;;;;5053655;28;20200;-46
2021/10/09 13:26:49;;;;;;;8.83;8.03;;;24.20;36.50;;;;;;5054565;28;20192;-45
2021/10/09 13:29:15;;;;;;;10.10;8.63;;;24.20;36.50;;;;;;5053713;28;20192;-47
2021/10/09 13:31:41;;;;;;;11.63;9.47;;;24.20;36.50;;;;;;5054449;28;20242;-49
2021/10/09 13:34:06;;;;;;;15.20;8.77;;;24.20;36.30;;;;;;5053227;28;20259;-46
2021/10/09 13:36:32;;;;;;;9.90;8.90;;;24.10;36.80;;;;;;5054374;28;20185;-45
2021/10/09 13:38:58;;;;;;;9.13;8.27;;;24.10;37.20;;;;;;5053513;28;20188;-45
2021/10/09 13:41:24;;;;;;;12.23;8.90;;;24.10;37.70;;;;;;5054132;28;20200;-49
2021/10/09 13:43:50;;;;;;;12.13;8.73;;;24.30;37.50;;;;;;5051152;28;20266;-49
2021/10/09 13:46:17;;;;;;;10.00;9.00;;;24.30;37.30;;;;;;5054379;28;20496;-46
2021/10/09 13:48:43;;;;;;;10.20;8.43;;;24.20;37.00;;;;;;5052980;28;20229;-51
2021/10/09 13:51:13;;;;;;;10.10;9.20;;;24.30;37.10;;;;;;5053899;28;20500;-50
2021/10/09 13:53:43;;;;;;;9.57;8.57;;;24.20;36.60;;;;;;5052905;28;20501;-45
2021/10/09 13:56:09;;;;;;;9.80;8.87;;;24.20;37.60;;;;;;5053975;28;20442;-48
2021/10/09 13:58:35;;;;;;;9.60;8.57;;;24.10;36.80;;;;;;5051526;28;20514;-50
2021/10/09 14:01:02;;;;;;;10.43;8.90;;;24.20;37.10;;;;;;5053412;28;20775;-46
2021/10/09 14:03:30;;;;;;;11.87;8.13;;;24.40;36.80;;;;;;5053355;28;20415;-48
2021/10/09 14:05:56;;;;;;;10.03;9.00;;;24.60;36.50;;;;;;5053112;28;20423;-46
2021/10/09 14:08:21;;;;;;;10.90;8.63;;;24.50;36.50;;;;;;5053579;28;20438;-50
2021/10/09 14:10:47;;;;;;;9.67;8.23;;;24.40;36.50;;;;;;5051295;28;20247;-50
2021/10/09 14:13:13;;;;;;;12.83;8.60;;;24.30;36.20;;;;;;5052726;28;20224;-46
2021/10/09 14:15:39;;;;;;;11.10;8.83;;;24.30;36.10;;;;;;5052949;28;20189;-45
2021/10/09 14:18:05;;;;;;;8.43;7.50;;;24.30;37.00;;;;;;5053239;28;20185;-48
2021/10/09 14:20:32;;;;;;;10.67;7.40;;;24.20;36.60;;;;;;5053067;28;20422;-46
2021/10/09 14:22:58;;;;;;;10.00;7.70;;;24.10;36.60;;;;;;5052836;28;20465;-45
2021/10/09 14:25:31;;;;;;;9.40;7.47;;;24.30;36.20;;;;;;5052743;28;20454;-51
2021/10/09 14:27:57;;;;;;;9.03;8.00;;;24.40;36.10;;;;;;5052899;28;20718;-48
2021/10/09 14:30:23;;;;;;;12.30;8.03;;;24.40;35.90;;;;;;5052762;28;20464;-45
2021/10/09 14:32:48;;;;;;;8.87;7.90;;;24.40;37.10;;;;;;5052777;28;21061;-45
2021/10/09 14:35:14;;;;;;;11.53;8.03;;;24.50;37.00;;;;;;5052338;28;20279;-45
2021/10/09 14:37:39;;;;;;;8.87;7.10;;;24.60;36.70;;;;;;5051391;28;20200;-49
2021/10/09 14:40:06;;;;;;;8.30;7.50;;;24.60;36.20;;;;;;5052466;28;20228;-46
2021/10/09 14:42:31;;;;;;;9.00;7.90;;;24.60;36.00;;;;;;5052587;28;20189;-47
2021/10/09 14:44:57;;;;;;;9.93;7.77;;;24.60;35.60;;;;;;5052251;28;20411;-47
2021/10/09 14:50:13;;;;;;;8.03;7.27;;;24.60;36.20;;;;;;5052130;28;20256;-45
2021/10/09 14:52:54;;;;;;;8.87;7.10;;;24.50;34.80;;;;;;5040539;28;20427;-50
2021/10/09 15:19:37;;;;;;;7.20;5.73;;;23.80;35.30;;;;;;5051490;28;20428;-48
2021/10/09 15:22:03;;;;;;;9.83;5.63;;;23.90;35.20;;;;;;5052452;28;20541;-46
2021/10/09 15:24:29;;;;;;;8.90;6.10;;;23.80;35.30;;;;;;5049972;28;20203;-46
2021/10/09 15:26:54;;;;;;;6.13;5.63;;;23.70;35.20;;;;;;5052181;28;20204;-49